SKW4234 KSLC-KGJT
Flight info
| Callsign | SKW4234 |
|---|---|
| Flight time | 0h 37m |
| Altitude | 29000 |
| Route | RUGGD3 KIERA JNC |
| Aircraft | CRJ7/M-SDFGIRWY/S |
Departure
| Time | 2026-04-26 21:24 |
|---|---|
| Airport | Salt Lake City International Airport (KSLC) |
Arrival
| Time | 2026-04-26 22:01 |
|---|---|
| Airport | Grand Junction Regional Airport (KGJT) |
| Time | Latitude | Longitude | Altitude | Speed | Heading |
|---|---|---|---|---|---|
| 2026-04-26 20:59 | 40.78552 | -111.97872 | 4229 ft | 0 kts | 350° |
| 2026-04-26 21:14 | 40.78542 | -111.97870 | 4229 ft | 2 kts | 350° |
| 2026-04-26 21:15 | 40.78526 | -111.97866 | 4229 ft | 2 kts | 351° |
| 2026-04-26 21:15 | 40.78510 | -111.97864 | 4229 ft | 2 kts | 13° |
| 2026-04-26 21:15 | 40.78500 | -111.97880 | 4229 ft | 2 kts | 76° |
| 2026-04-26 21:15 | 40.78499 | -111.97885 | 4229 ft | 0 kts | 81° |
| 2026-04-26 21:18 | 40.78500 | -111.97874 | 4229 ft | 5 kts | 85° |
| 2026-04-26 21:18 | 40.78511 | -111.97774 | 4229 ft | 13 kts | 84° |
| 2026-04-26 21:18 | 40.78494 | -111.97657 | 4229 ft | 15 kts | 152° |
| 2026-04-26 21:19 | 40.78381 | -111.97639 | 4229 ft | 19 kts | 175° |
| 2026-04-26 21:19 | 40.78241 | -111.97623 | 4229 ft | 22 kts | 175° |
| 2026-04-26 21:19 | 40.78077 | -111.97604 | 4229 ft | 25 kts | 175° |
| 2026-04-26 21:19 | 40.77907 | -111.97558 | 4258 ft | 22 kts | 152° |
| 2026-04-26 21:20 | 40.77753 | -111.97516 | 4258 ft | 23 kts | 175° |
| 2026-04-26 21:20 | 40.77592 | -111.97497 | 4258 ft | 24 kts | 175° |
| 2026-04-26 21:20 | 40.77470 | -111.97478 | 4258 ft | 7 kts | 154° |
| 2026-04-26 21:20 | 40.77463 | -111.97472 | 4258 ft | 0 kts | 141° |
| 2026-04-26 21:21 | 40.77460 | -111.97468 | 4258 ft | 4 kts | 140° |
| 2026-04-26 21:22 | 40.77459 | -111.97393 | 4258 ft | 15 kts | 52° |
| 2026-04-26 21:22 | 40.77535 | -111.97324 | 4258 ft | 6 kts | 356° |
| 2026-04-26 21:22 | 40.77541 | -111.97324 | 4258 ft | 0 kts | 355° |
| 2026-04-26 21:23 | 40.77560 | -111.97326 | 4258 ft | 17 kts | 355° |
| 2026-04-26 21:23 | 40.77916 | -111.97367 | 4258 ft | 85 kts | 355° |
| 2026-04-26 21:23 | 40.78709 | -111.97461 | 4230 ft | 141 kts | 355° |
| 2026-04-26 21:24 | 40.79783 | -111.97565 | 4586 ft | 158 kts | 355° |
| 2026-04-26 21:24 | 40.80948 | -111.97690 | 4984 ft | 186 kts | 350° |
| 2026-04-26 21:24 | 40.82291 | -111.97867 | 5613 ft | 193 kts | 352° |
| 2026-04-26 21:24 | 40.83698 | -111.98050 | 5877 ft | 220 kts | 352° |
| 2026-04-26 21:25 | 40.85319 | -111.98311 | 6111 ft | 250 kts | 351° |
| 2026-04-26 21:25 | 40.87149 | -111.98643 | 6579 ft | 278 kts | 351° |
| 2026-04-26 21:25 | 40.89108 | -111.98985 | 7149 ft | 289 kts | 349° |
| 2026-04-26 21:25 | 40.91129 | -111.99321 | 7733 ft | 296 kts | 350° |
| 2026-04-26 21:26 | 40.93178 | -111.99676 | 8366 ft | 296 kts | 351° |
| 2026-04-26 21:26 | 40.95279 | -111.99960 | 8806 ft | 314 kts | 352° |
| 2026-04-26 21:26 | 40.97513 | -112.00305 | 9371 ft | 327 kts | 351° |
| 2026-04-26 21:26 | 40.99782 | -112.00654 | 10136 ft | 328 kts | 351° |
| 2026-04-26 21:27 | 41.02051 | -112.00999 | 10867 ft | 328 kts | 350° |
| 2026-04-26 21:27 | 41.04321 | -112.01292 | 11553 ft | 331 kts | 355° |
| 2026-04-26 21:27 | 41.06629 | -112.00721 | 11678 ft | 358 kts | 22° |
| 2026-04-26 21:27 | 41.08600 | -111.98707 | 12323 ft | 362 kts | 50° |
| 2026-04-26 21:28 | 41.09733 | -111.95765 | 13126 ft | 359 kts | 76° |
| 2026-04-26 21:28 | 41.09832 | -111.92505 | 13899 ft | 353 kts | 103° |
| 2026-04-26 21:28 | 41.08903 | -111.89548 | 14535 ft | 346 kts | 128° |
| 2026-04-26 21:28 | 41.07411 | -111.87064 | 15195 ft | 343 kts | 136° |
| 2026-04-26 21:29 | 41.05707 | -111.84869 | 15843 ft | 341 kts | 141° |
| 2026-04-26 21:29 | 41.03924 | -111.82773 | 16447 ft | 345 kts | 142° |
| 2026-04-26 21:29 | 41.02088 | -111.80699 | 17078 ft | 349 kts | 142° |
| 2026-04-26 21:29 | 41.00253 | -111.78567 | 17742 ft | 354 kts | 140° |
| 2026-04-26 21:30 | 40.98455 | -111.76312 | 18345 ft | 356 kts | 139° |
| 2026-04-26 21:30 | 40.96642 | -111.74060 | 18949 ft | 358 kts | 140° |
| 2026-04-26 21:30 | 40.94784 | -111.71766 | 19138 ft | 375 kts | 139° |
| 2026-04-26 21:30 | 40.92827 | -111.69361 | 19266 ft | 391 kts | 139° |
| 2026-04-26 21:31 | 40.90854 | -111.66925 | 20038 ft | 386 kts | 139° |
| 2026-04-26 21:31 | 40.88901 | -111.64520 | 20816 ft | 382 kts | 139° |
| 2026-04-26 21:31 | 40.86958 | -111.62158 | 21599 ft | 377 kts | 140° |
| 2026-04-26 21:31 | 40.85039 | -111.59814 | 22401 ft | 374 kts | 139° |
| 2026-04-26 21:32 | 40.83164 | -111.57525 | 23220 ft | 370 kts | 140° |
| 2026-04-26 21:32 | 40.81279 | -111.55232 | 23831 ft | 368 kts | 139° |
| 2026-04-26 21:32 | 40.79408 | -111.52938 | 24413 ft | 366 kts | 140° |
| 2026-04-26 21:32 | 40.77546 | -111.50650 | 24965 ft | 366 kts | 139° |
| 2026-04-26 21:33 | 40.75680 | -111.48372 | 25461 ft | 366 kts | 140° |
| 2026-04-26 21:33 | 40.73811 | -111.46090 | 25967 ft | 366 kts | 140° |
| 2026-04-26 21:33 | 40.71938 | -111.43814 | 26383 ft | 368 kts | 139° |
| 2026-04-26 21:33 | 40.70276 | -111.41211 | 26650 ft | 376 kts | 124° |
| 2026-04-26 21:34 | 40.68928 | -111.38227 | 26914 ft | 382 kts | 121° |
| 2026-04-26 21:34 | 40.67673 | -111.35112 | 27185 ft | 388 kts | 116° |
| 2026-04-26 21:34 | 40.66631 | -111.31804 | 27461 ft | 393 kts | 112° |
| 2026-04-26 21:34 | 40.65704 | -111.28392 | 27746 ft | 398 kts | 110° |
| 2026-04-26 21:35 | 40.64783 | -111.24941 | 28040 ft | 402 kts | 111° |
| 2026-04-26 21:35 | 40.63832 | -111.21467 | 28336 ft | 405 kts | 112° |
| 2026-04-26 21:35 | 40.62823 | -111.17988 | 28550 ft | 410 kts | 112° |
| 2026-04-26 21:35 | 40.61794 | -111.14452 | 28635 ft | 417 kts | 112° |
| 2026-04-26 21:36 | 40.60045 | -111.08419 | 28670 ft | 432 kts | 111° |
| 2026-04-26 21:36 | 40.58586 | -111.03411 | 28681 ft | 444 kts | 112° |
| 2026-04-26 21:36 | 40.57467 | -110.99587 | 28677 ft | 452 kts | 112° |
| 2026-04-26 21:37 | 40.55176 | -110.91729 | 28668 ft | 468 kts | 112° |
| 2026-04-26 21:37 | 40.52798 | -110.83654 | 28667 ft | 474 kts | 112° |
| 2026-04-26 21:38 | 40.50489 | -110.75767 | 28658 ft | 457 kts | 112° |
| 2026-04-26 21:38 | 40.48213 | -110.68060 | 28639 ft | 449 kts | 112° |
| 2026-04-26 21:39 | 40.45968 | -110.60474 | 28619 ft | 444 kts | 112° |
| 2026-04-26 21:39 | 40.43728 | -110.52910 | 28622 ft | 445 kts | 112° |
| 2026-04-26 21:40 | 40.41480 | -110.45341 | 28610 ft | 445 kts | 112° |
| 2026-04-26 21:40 | 40.39305 | -110.37707 | 28614 ft | 449 kts | 111° |
| 2026-04-26 21:41 | 40.37162 | -110.29947 | 28605 ft | 456 kts | 111° |
| 2026-04-26 21:41 | 40.34991 | -110.22054 | 28608 ft | 464 kts | 112° |
| 2026-04-26 21:42 | 40.32754 | -110.14082 | 28609 ft | 468 kts | 111° |
| 2026-04-26 21:42 | 40.30488 | -110.06065 | 28600 ft | 470 kts | 111° |
| 2026-04-26 21:43 | 40.28211 | -109.98016 | 28600 ft | 471 kts | 111° |
| 2026-04-26 21:43 | 40.25616 | -109.90325 | 28093 ft | 454 kts | 127° |
| 2026-04-26 21:44 | 40.23490 | -109.87356 | 27606 ft | 444 kts | 141° |
| 2026-04-26 21:44 | 40.21105 | -109.84825 | 27131 ft | 440 kts | 144° |
| 2026-04-26 21:44 | 40.18634 | -109.82487 | 26651 ft | 437 kts | 147° |
| 2026-04-26 21:44 | 40.16005 | -109.80532 | 26186 ft | 434 kts | 157° |
| 2026-04-26 21:45 | 40.13228 | -109.79021 | 25717 ft | 432 kts | 161° |
| 2026-04-26 21:45 | 40.10427 | -109.77612 | 25273 ft | 431 kts | 160° |
| 2026-04-26 21:45 | 40.07654 | -109.76145 | 24857 ft | 430 kts | 159° |
| 2026-04-26 21:45 | 40.04951 | -109.74608 | 24446 ft | 427 kts | 157° |
| 2026-04-26 21:46 | 40.02244 | -109.73036 | 24040 ft | 421 kts | 158° |
| 2026-04-26 21:46 | 39.99596 | -109.71510 | 23634 ft | 413 kts | 158° |
| 2026-04-26 21:46 | 39.96967 | -109.70012 | 23234 ft | 412 kts | 159° |
| 2026-04-26 21:46 | 39.94335 | -109.68514 | 22785 ft | 414 kts | 159° |
| 2026-04-26 21:47 | 39.91699 | -109.67015 | 22317 ft | 413 kts | 158° |
| 2026-04-26 21:47 | 39.89073 | -109.65542 | 21863 ft | 406 kts | 159° |
| 2026-04-26 21:47 | 39.86524 | -109.64097 | 21416 ft | 393 kts | 159° |
| 2026-04-26 21:47 | 39.84044 | -109.62698 | 20963 ft | 384 kts | 159° |
| 2026-04-26 21:48 | 39.81600 | -109.61324 | 20518 ft | 381 kts | 160° |
| 2026-04-26 21:48 | 39.79177 | -109.59961 | 20086 ft | 378 kts | 160° |
| 2026-04-26 21:48 | 39.76769 | -109.58613 | 19661 ft | 376 kts | 161° |
| 2026-04-26 21:48 | 39.74374 | -109.57272 | 19262 ft | 374 kts | 160° |
| 2026-04-26 21:49 | 39.71990 | -109.55942 | 18849 ft | 372 kts | 161° |
| 2026-04-26 21:49 | 39.69618 | -109.54628 | 18434 ft | 370 kts | 160° |
| 2026-04-26 21:49 | 39.67320 | -109.53121 | 18027 ft | 374 kts | 147° |
| 2026-04-26 21:49 | 39.65454 | -109.50736 | 17616 ft | 378 kts | 135° |
| 2026-04-26 21:50 | 39.63862 | -109.48010 | 17163 ft | 380 kts | 128° |
| 2026-04-26 21:50 | 39.62891 | -109.46068 | 16864 ft | 380 kts | 126° |
| 2026-04-26 21:50 | 39.60975 | -109.42281 | 16244 ft | 378 kts | 129° |
| 2026-04-26 21:50 | 39.59502 | -109.39457 | 15801 ft | 378 kts | 128° |
| 2026-04-26 21:51 | 39.58052 | -109.36620 | 15371 ft | 376 kts | 129° |
| 2026-04-26 21:51 | 39.56574 | -109.33875 | 14915 ft | 367 kts | 130° |
| 2026-04-26 21:51 | 39.55103 | -109.31195 | 14480 ft | 363 kts | 129° |
| 2026-04-26 21:51 | 39.53656 | -109.28548 | 14048 ft | 358 kts | 129° |
| 2026-04-26 21:52 | 39.52222 | -109.25922 | 13830 ft | 356 kts | 129° |
| 2026-04-26 21:52 | 39.51269 | -109.24191 | 13668 ft | 357 kts | 129° |
| 2026-04-26 21:52 | 39.49871 | -109.21517 | 13376 ft | 359 kts | 128° |
| 2026-04-26 21:52 | 39.48445 | -109.18875 | 13237 ft | 357 kts | 129° |
| 2026-04-26 21:53 | 39.47041 | -109.16274 | 12960 ft | 344 kts | 127° |
| 2026-04-26 21:53 | 39.45770 | -109.13748 | 12586 ft | 326 kts | 128° |
| 2026-04-26 21:53 | 39.44531 | -109.11376 | 12259 ft | 311 kts | 130° |
| 2026-04-26 21:53 | 39.43265 | -109.09154 | 11963 ft | 305 kts | 133° |
| 2026-04-26 21:54 | 39.42036 | -109.06926 | 11604 ft | 305 kts | 127° |
| 2026-04-26 21:54 | 39.40889 | -109.04642 | 11320 ft | 300 kts | 130° |
| 2026-04-26 21:54 | 39.39665 | -109.02467 | 11027 ft | 299 kts | 131° |
| 2026-04-26 21:54 | 39.38465 | -109.00274 | 10734 ft | 298 kts | 130° |
| 2026-04-26 21:55 | 39.37252 | -108.98117 | 10483 ft | 296 kts | 130° |
| 2026-04-26 21:55 | 39.36059 | -108.95956 | 10245 ft | 294 kts | 131° |
| 2026-04-26 21:55 | 39.34889 | -108.93831 | 10018 ft | 295 kts | 131° |
| 2026-04-26 21:55 | 39.33713 | -108.91622 | 9780 ft | 300 kts | 131° |
| 2026-04-26 21:56 | 39.32547 | -108.89373 | 9559 ft | 303 kts | 130° |
| 2026-04-26 21:56 | 39.31363 | -108.87135 | 9319 ft | 300 kts | 131° |
| 2026-04-26 21:56 | 39.30174 | -108.84940 | 9094 ft | 297 kts | 131° |
| 2026-04-26 21:56 | 39.28995 | -108.82764 | 8847 ft | 295 kts | 132° |
| 2026-04-26 21:57 | 39.27810 | -108.80616 | 8597 ft | 292 kts | 132° |
| 2026-04-26 21:57 | 39.26638 | -108.78478 | 8353 ft | 291 kts | 131° |
| 2026-04-26 21:57 | 39.25489 | -108.76372 | 8082 ft | 281 kts | 131° |
| 2026-04-26 21:57 | 39.24363 | -108.74357 | 7926 ft | 272 kts | 131° |
| 2026-04-26 21:58 | 39.23269 | -108.72404 | 7677 ft | 265 kts | 129° |
| 2026-04-26 21:58 | 39.22239 | -108.70474 | 7447 ft | 256 kts | 128° |
| 2026-04-26 21:58 | 39.21275 | -108.68604 | 7238 ft | 244 kts | 130° |
| 2026-04-26 21:58 | 39.20346 | -108.66912 | 7309 ft | 218 kts | 132° |
| 2026-04-26 21:59 | 39.19482 | -108.65375 | 7141 ft | 208 kts | 131° |
| 2026-04-26 21:59 | 39.18657 | -108.63848 | 6834 ft | 205 kts | 131° |
| 2026-04-26 21:59 | 39.17876 | -108.62402 | 6563 ft | 183 kts | 133° |
| 2026-04-26 21:59 | 39.17174 | -108.61175 | 6308 ft | 161 kts | 131° |
| 2026-04-26 22:00 | 39.16546 | -108.60015 | 6075 ft | 153 kts | 129° |
| 2026-04-26 22:00 | 39.15971 | -108.58896 | 5825 ft | 149 kts | 129° |
| 2026-04-26 22:00 | 39.15361 | -108.57812 | 5559 ft | 149 kts | 131° |
| 2026-04-26 22:00 | 39.14751 | -108.56718 | 5323 ft | 151 kts | 131° |
| 2026-04-26 22:01 | 39.14161 | -108.55595 | 5086 ft | 151 kts | 133° |
| 2026-04-26 22:01 | 39.13547 | -108.54504 | 4881 ft | 150 kts | 135° |
| 2026-04-26 22:01 | 39.12984 | -108.53521 | 4836 ft | 113 kts | 127° |
| 2026-04-26 22:01 | 39.12729 | -108.53040 | 4840 ft | 48 kts | 127° |
| 2026-04-26 22:02 | 39.12563 | -108.52735 | 4847 ft | 38 kts | 125° |
| 2026-04-26 22:02 | 39.12452 | -108.52535 | 4850 ft | 17 kts | 130° |
| 2026-04-26 22:02 | 39.12358 | -108.52542 | 4850 ft | 15 kts | 216° |
| 2026-04-26 22:02 | 39.12290 | -108.52627 | 4850 ft | 13 kts | 261° |
| 2026-04-26 22:03 | 39.12328 | -108.52727 | 4849 ft | 13 kts | 305° |
| 2026-04-26 22:03 | 39.12382 | -108.52827 | 4846 ft | 14 kts | 305° |
| 2026-04-26 22:03 | 39.12367 | -108.52919 | 4846 ft | 11 kts | 223° |
| 2026-04-26 22:03 | 39.12352 | -108.52934 | 4846 ft | 0 kts | 215° |